Time;durP1;ratioP1;P1;durP2;ratioP2;P2;SDS_P1;SDS_P2;PMS_P1;PMS_P2;Temp;Humidity;BMP_temperature;BMP_pressure;BME280_temperature;BME280_humidity;BME280_pressure;Samples;Min_cycle;Max_cycle;Signal;HPM_P1;HPM_P2
2023/05/04 00:01:33;;;;;;;4.90;2.73;;;;;;;15.39;42.74;102423.84;5048497;28;20531;-69
2023/05/04 00:03:59;;;;;;;4.33;2.40;;;;;;;15.94;42.12;102417.38;5051536;28;20074;-68
2023/05/04 00:06:24;;;;;;;6.60;2.83;;;;;;;16.02;41.55;102419.97;5051248;28;20029;-68
2023/05/04 00:08:49;;;;;;;3.93;2.37;;;;;;;16.15;41.59;102409.31;5049693;28;20470;-68
2023/05/04 00:11:16;;;;;;;5.27;3.23;;;;;;;16.37;41.59;102416.13;5052505;28;20033;-74
2023/05/04 00:13:41;;;;;;;5.20;2.90;;;;;;;15.97;42.40;102416.47;5048261;28;20722;-69
2023/05/04 00:16:07;;;;;;;5.77;2.20;;;;;;;16.26;41.38;102418.00;5031490;28;20076;-69
2023/05/04 00:18:32;;;;;;;5.50;2.80;;;;;;;16.96;40.21;102405.00;5032412;28;20048;-69
2023/05/04 00:20:58;;;;;;;4.77;2.90;;;;;;;16.02;41.97;102414.69;5048148;28;20447;-69
2023/05/04 00:23:23;;;;;;;4.07;2.50;;;;;;;16.30;41.63;102405.69;5035776;28;20049;-69
2023/05/04 00:25:48;;;;;;;5.20;3.00;;;;;;;16.51;40.92;102401.94;5050385;28;20029;-69
2023/05/04 00:28:14;;;;;;;4.97;2.63;;;;;;;16.32;41.37;102407.41;5050418;28;20033;-69
2023/05/04 00:30:39;;;;;;;5.50;2.97;;;;;;;16.69;40.44;102398.25;5048547;28;20599;-69
2023/05/04 00:33:04;;;;;;;5.23;3.00;;;;;;;16.91;40.27;102399.81;5051881;28;20032;-67
2023/05/04 00:35:30;;;;;;;5.97;2.40;;;;;;;16.36;41.22;102403.88;5051091;28;20562;-69
2023/05/04 00:37:56;;;;;;;4.90;2.77;;;;;;;16.13;41.61;102404.06;5064400;28;20037;-68
2023/05/04 00:40:21;;;;;;;6.00;2.77;;;;;;;17.42;39.19;102398.25;5050383;28;20526;-68
2023/05/04 00:42:47;;;;;;;5.53;2.40;;;;;;;16.88;40.52;102404.19;5051337;28;20029;-68
2023/05/04 00:45:13;;;;;;;4.50;2.57;;;;;;;17.39;39.73;102393.03;5044700;28;20014;-69
2023/05/04 00:47:39;;;;;;;8.73;2.67;;;;;;;16.93;39.95;102391.84;5030380;28;20505;-69
2023/05/04 00:50:06;;;;;;;5.90;2.67;;;;;;;17.34;39.61;102395.72;5060298;28;20388;-69
2023/05/04 00:52:33;;;;;;;4.13;2.50;;;;;;;17.13;39.81;102391.59;5050078;28;20111;-68
2023/05/04 00:55:00;;;;;;;6.20;2.53;;;;;;;15.82;42.18;102390.22;5051030;28;20047;-68
2023/05/04 00:57:25;;;;;;;5.00;3.23;;;;;;;16.59;40.73;102382.50;5050521;28;20090;-69
2023/05/04 00:59:52;;;;;;;6.03;3.00;;;;;;;16.86;40.74;102382.22;5050683;28;20021;-68
2023/05/04 01:02:18;;;;;;;9.43;3.60;;;;;;;17.11;39.68;102383.69;5035401;28;20025;-68
2023/05/04 01:04:44;;;;;;;4.53;2.53;;;;;;;15.58;42.68;102373.69;5029928;28;20061;-69
2023/05/04 01:07:18;;;;;;;4.77;2.77;;;;;;;16.63;40.56;102378.06;5031481;28;20060;-68
2023/05/04 01:09:52;;;;;;;4.13;2.87;;;;;;;16.38;41.06;102365.13;5030622;28;20112;-69
2023/05/04 01:12:36;;;;;;;5.30;2.50;;;;;;;16.34;40.91;102373.97;5060896;28;20074;-69
2023/05/04 01:15:05;;;;;;;5.13;3.73;;;;;;;16.57;41.19;102372.88;5048841;28;20033;-69
2023/05/04 01:17:31;;;;;;;7.33;2.87;;;;;;;16.30;40.94;102366.97;5051621;28;20021;-69
2023/05/04 01:19:56;;;;;;;4.57;2.60;;;;;;;16.47;41.16;102363.28;5050856;28;20056;-69
2023/05/04 01:22:22;;;;;;;4.33;2.60;;;;;;;17.01;40.42;102354.75;5053607;28;20035;-69
2023/05/04 01:24:48;;;;;;;6.60;2.50;;;;;;;16.10;41.67;102354.84;5050857;28;20025;-68
2023/05/04 01:27:23;;;;;;;6.17;2.33;;;;;;;17.79;38.96;102356.28;5048173;28;20488;-69
2023/05/04 01:29:58;;;;;;;5.07;2.93;;;;;;;16.34;40.96;102352.00;5066257;28;20040;-68
2023/05/04 01:32:27;;;;;;;6.37;2.57;;;;;;;17.24;40.06;102352.72;5056846;28;20289;-68
2023/05/04 01:34:52;;;;;;;5.40;3.40;;;;;;;16.83;40.64;102345.28;5058923;28;20128;-69
2023/05/04 01:37:18;;;;;;;5.47;2.93;;;;;;;17.01;40.04;102345.09;5038471;28;20136;-69
2023/05/04 01:39:43;;;;;;;4.77;2.73;;;;;;;16.17;41.62;102349.50;5041242;28;20481;-68
2023/05/04 01:42:09;;;;;;;6.47;3.20;;;;;;;15.37;43.08;102346.56;5043880;28;20449;-68
2023/05/04 01:44:34;;;;;;;4.47;2.67;;;;;;;17.09;40.01;102347.63;5049892;28;20135;-68
2023/05/04 01:47:00;;;;;;;7.90;2.77;;;;;;;16.14;42.18;102344.25;5048890;28;20491;-68
2023/05/04 01:49:26;;;;;;;7.03;3.20;;;;;;;17.20;39.59;102334.25;5046822;28;20059;-68
2023/05/04 01:51:51;;;;;;;4.87;2.83;;;;;;;16.48;41.16;102343.94;5056859;28;20047;-69
2023/05/04 01:54:16;;;;;;;6.00;2.90;;;;;;;15.97;41.46;102342.66;5043834;28;20049;-69
2023/05/04 01:56:42;;;;;;;6.43;3.13;;;;;;;16.16;42.00;102339.84;5040777;28;20033;-69
2023/05/04 01:59:07;;;;;;;5.20;3.03;;;;;;;15.59;42.20;102342.03;5043588;28;20452;-68
2023/05/04 02:01:32;;;;;;;8.27;2.87;;;;;;;15.97;42.29;102331.22;5030816;28;20131;-69
2023/05/04 02:03:58;;;;;;;4.50;2.60;;;;;;;15.82;42.26;102342.78;5067285;28;20086;-69
2023/05/04 02:06:23;;;;;;;5.27;2.63;;;;;;;15.80;42.37;102334.00;5068894;28;20039;-68
2023/05/04 02:08:49;;;;;;;6.17;3.37;;;;;;;16.10;41.97;102338.13;5067083;28;20027;-68
2023/05/04 02:11:15;;;;;;;4.63;2.73;;;;;;;16.41;41.33;102333.41;5051970;28;20029;-68
2023/05/04 02:13:41;;;;;;;5.00;2.50;;;;;;;16.20;41.62;102334.53;5050510;28;20090;-68
2023/05/04 02:16:06;;;;;;;6.40;2.87;;;;;;;16.32;41.80;102328.25;5048217;28;20127;-68
2023/05/04 02:18:32;;;;;;;4.43;2.70;;;;;;;15.83;42.20;102334.84;5049162;28;20394;-69
2023/05/04 02:20:57;;;;;;;4.07;2.53;;;;;;;16.06;41.74;102331.13;5053382;28;20465;-68
2023/05/04 02:23:23;;;;;;;6.83;3.00;;;;;;;16.70;40.83;102324.28;5049698;28;20642;-68
2023/05/04 02:25:48;;;;;;;4.50;2.90;;;;;;;15.99;41.84;102325.06;5048267;28;20028;-68
2023/05/04 02:28:13;;;;;;;6.83;3.33;;;;;;;15.69;42.40;102324.38;5047709;28;20548;-69
2023/05/04 02:30:40;;;;;;;5.00;2.50;;;;;;;16.27;41.88;102325.66;5055028;28;20033;-68
2023/05/04 02:33:06;;;;;;;5.03;3.30;;;;;;;15.71;42.64;102319.97;5048399;28;20025;-68
2023/05/04 02:35:31;;;;;;;6.77;2.53;;;;;;;15.84;43.11;102319.91;5048964;28;20124;-68
2023/05/04 02:37:56;;;;;;;4.70;2.53;;;;;;;14.60;44.15;102317.91;5043731;28;20056;-68
2023/05/04 02:40:22;;;;;;;3.53;2.50;;;;;;;14.97;44.35;102323.06;5034199;28;20496;-69
2023/05/04 02:42:47;;;;;;;4.97;2.53;;;;;;;15.54;43.31;102316.59;5042421;28;20032;-68
2023/05/04 02:45:12;;;;;;;6.03;2.40;;;;;;;16.01;42.28;102307.44;5048853;28;20035;-68
2023/05/04 02:47:38;;;;;;;8.73;3.40;;;;;;;15.23;43.99;102306.25;5048576;28;20495;-69
2023/05/04 02:50:04;;;;;;;4.67;2.80;;;;;;;15.37;43.72;102314.97;5054979;28;20115;-68
2023/05/04 02:52:29;;;;;;;5.30;2.90;;;;;;;15.51;43.69;102311.34;5047574;28;20033;-68
2023/05/04 02:54:55;;;;;;;10.13;4.90;;;;;;;15.24;43.55;102310.66;5047715;28;20475;-68
2023/05/04 02:57:20;;;;;;;3.73;2.10;;;;;;;14.83;44.37;102301.22;5047805;28;20403;-69
2023/05/04 02:59:46;;;;;;;5.27;2.50;;;;;;;15.23;44.27;102298.34;5047559;28;20028;-68
2023/05/04 03:02:11;;;;;;;5.13;2.83;;;;;;;14.79;44.70;102304.72;5048996;28;20037;-68
2023/05/04 03:04:36;;;;;;;4.17;2.63;;;;;;;14.97;44.42;102298.50;5047555;28;20575;-68
2023/05/04 03:07:02;;;;;;;4.53;2.93;;;;;;;15.21;44.07;102302.78;5049635;28;20045;-68
2023/05/04 03:09:27;;;;;;;4.37;2.37;;;;;;;14.96;43.93;102302.00;5049307;28;20462;-68
2023/05/04 03:11:52;;;;;;;6.10;2.73;;;;;;;15.04;44.41;102301.09;5040315;28;20028;-68
2023/05/04 03:14:18;;;;;;;5.07;2.50;;;;;;;14.97;44.13;102294.09;5047720;28;20388;-68
2023/05/04 03:16:43;;;;;;;5.73;2.50;;;;;;;14.66;45.03;102290.72;5048482;28;20028;-68
2023/05/04 03:19:08;;;;;;;5.60;2.97;;;;;;;15.03;44.33;102296.72;5046065;28;20033;-68
2023/05/04 03:21:34;;;;;;;7.17;2.80;;;;;;;15.64;43.52;102286.66;5040746;28;20037;-68
2023/05/04 03:23:59;;;;;;;4.43;2.40;;;;;;;14.72;45.24;102286.31;5033764;28;20017;-68
2023/05/04 03:26:24;;;;;;;6.17;2.77;;;;;;;14.74;44.77;102296.84;5048626;28;20116;-68
2023/05/04 03:28:50;;;;;;;4.67;2.10;;;;;;;15.20;44.02;102293.09;5049475;28;20135;-69
2023/05/04 03:31:15;;;;;;;4.43;2.40;;;;;;;15.05;43.72;102289.66;5051299;28;20029;-68
2023/05/04 03:33:41;;;;;;;5.03;2.73;;;;;;;15.34;43.87;102288.59;5048877;28;20405;-68
2023/05/04 03:36:08;;;;;;;6.73;2.10;;;;;;;15.15;44.20;102281.72;5047733;28;20031;-68
2023/05/04 03:38:33;;;;;;;4.77;2.10;;;;;;;15.55;43.25;102289.34;5047860;28;20126;-68
2023/05/04 03:40:58;;;;;;;7.63;2.37;;;;;;;14.81;44.58;102288.06;5049148;28;20021;-68
2023/05/04 03:43:24;;;;;;;6.90;2.40;;;;;;;15.68;43.08;102283.09;5048309;28;20502;-68
2023/05/04 03:45:49;;;;;;;4.43;2.57;;;;;;;14.96;44.49;102281.84;5035064;28;20032;-69
2023/05/04 03:48:15;;;;;;;5.57;2.63;;;;;;;15.71;42.43;102280.41;5030238;28;20120;-68
2023/05/04 03:50:40;;;;;;;4.73;2.60;;;;;;;14.86;44.39;102290.66;5048027;28;20029;-68
2023/05/04 03:53:05;;;;;;;4.13;2.30;;;;;;;15.01;44.16;102280.03;5056353;28;20063;-68
2023/05/04 03:55:31;;;;;;;4.83;2.50;;;;;;;14.66;44.28;102283.72;5066300;28;20202;-67
2023/05/04 03:57:56;;;;;;;6.20;2.30;;;;;;;15.23;43.75;102274.66;5047984;28;20025;-69
2023/05/04 04:00:22;;;;;;;5.07;2.93;;;;;;;14.62;45.00;102274.06;5048780;28;20044;-68
2023/05/04 04:02:47;;;;;;;4.43;2.73;;;;;;;15.05;43.80;102263.34;5047076;28;20116;-69
2023/05/04 04:05:13;;;;;;;4.03;2.30;;;;;;;14.63;45.09;102269.69;5047567;28;20037;-68
2023/05/04 04:07:38;;;;;;;4.13;2.00;;;;;;;14.86;44.36;102265.19;5047677;28;20033;-68
2023/05/04 04:10:04;;;;;;;4.30;2.47;;;;;;;14.79;44.11;102265.25;5048915;28;20032;-69
2023/05/04 04:12:29;;;;;;;2.67;1.80;;;;;;;14.96;44.22;102266.03;5029728;28;20041;-68
2023/05/04 04:14:54;;;;;;;4.07;2.40;;;;;;;14.94;43.84;102257.25;5038308;28;20483;-69
2023/05/04 04:17:20;;;;;;;6.03;2.20;;;;;;;15.22;43.11;102257.97;5059409;28;20468;-68
2023/05/04 04:19:45;;;;;;;4.13;2.27;;;;;;;14.36;45.17;102253.97;5051849;28;20064;-68
2023/05/04 04:22:10;;;;;;;6.33;2.17;;;;;;;15.01;43.76;102250.22;5032723;28;20374;-69
2023/05/04 04:24:36;;;;;;;10.23;3.07;;;;;;;15.02;43.71;102254.59;5031979;28;20053;-68
2023/05/04 04:27:01;;;;;;;8.60;2.63;;;;;;;14.96;44.12;102254.63;5071129;28;20468;-68
2023/05/04 04:29:27;;;;;;;8.17;2.57;;;;;;;14.58;44.70;102251.28;5052085;28;20116;-68
2023/05/04 04:31:52;;;;;;;5.33;2.90;;;;;;;14.87;44.30;102250.28;5049925;28;20082;-68
2023/05/04 04:34:17;;;;;;;4.17;2.20;;;;;;;14.88;44.12;102249.41;5049330;28;20448;-67
2023/05/04 04:36:43;;;;;;;5.73;2.87;;;;;;;14.65;44.80;102247.75;5046453;28;20037;-68
2023/05/04 04:39:09;;;;;;;5.00;2.77;;;;;;;14.39;45.33;102243.44;5050548;28;20043;-68
2023/05/04 04:41:35;;;;;;;3.77;1.77;;;;;;;14.70;44.74;102238.09;5044688;28;20485;-68
2023/05/04 04:44:01;;;;;;;7.07;2.30;;;;;;;14.63;44.94;102233.75;5029802;28;20124;-69
2023/05/04 04:46:27;;;;;;;3.80;2.03;;;;;;;14.48;45.39;102231.13;5042319;28;20023;-68
2023/05/04 04:48:53;;;;;;;6.50;2.00;;;;;;;15.47;43.43;102233.19;5050930;28;20037;-68
2023/05/04 04:51:19;;;;;;;3.47;2.50;;;;;;;14.39;45.11;102232.91;5051345;28;20049;-68
2023/05/04 04:53:44;;;;;;;4.60;2.07;;;;;;;14.56;45.19;102237.22;5052024;28;20448;-68
2023/05/04 04:56:10;;;;;;;4.93;2.60;;;;;;;15.31;43.58;102237.72;5048685;28;20024;-68
2023/05/04 04:58:35;;;;;;;3.27;1.90;;;;;;;14.29;45.55;102236.47;5050027;28;20043;-68
2023/05/04 05:01:04;;;;;;;5.97;2.63;;;;;;;15.16;43.90;102236.06;5049712;28;20017;-67
2023/05/04 05:03:30;;;;;;;3.47;2.10;;;;;;;14.93;44.87;102234.44;5051089;28;20025;-68
2023/05/04 05:05:56;;;;;;;4.87;2.60;;;;;;;14.06;45.97;102237.41;5049691;28;20021;-69
2023/05/04 05:08:21;;;;;;;3.40;2.30;;;;;;;14.31;45.36;102237.31;5051684;28;20139;-68
2023/05/04 05:10:47;;;;;;;2.83;1.93;;;;;;;14.68;45.39;102239.84;5067363;28;20060;-68
2023/05/04 05:13:12;;;;;;;4.70;2.57;;;;;;;14.97;44.58;102243.22;5033090;28;20061;-68
2023/05/04 05:15:37;;;;;;;4.73;2.37;;;;;;;14.66;44.41;102238.09;5031719;28;20095;-68
2023/05/04 05:18:03;;;;;;;6.77;2.43;;;;;;;15.08;43.71;102242.28;5040551;28;20033;-67
2023/05/04 05:20:29;;;;;;;3.20;2.43;;;;;;;15.04;44.08;102243.19;5055175;28;20024;-68
2023/05/04 05:22:54;;;;;;;4.87;2.40;;;;;;;15.38;43.58;102227.09;5041068;28;20508;-68
2023/05/04 05:25:20;;;;;;;6.10;2.70;;;;;;;15.57;42.85;102226.97;5029820;28;20377;-68
2023/05/04 05:27:45;;;;;;;4.23;2.13;;;;;;;15.38;43.54;102229.75;5031604;28;20057;-68
2023/05/04 05:30:11;;;;;;;3.67;2.53;;;;;;;15.21;43.80;102242.19;5050621;28;20037;-68
2023/05/04 05:32:37;;;;;;;7.03;2.37;;;;;;;15.97;42.52;102234.53;5040574;28;20140;-68
2023/05/04 05:35:03;;;;;;;4.63;2.87;;;;;;;15.84;42.67;102230.25;5030068;28;20113;-68
2023/05/04 05:37:30;;;;;;;3.83;2.53;;;;;;;15.81;43.56;102236.44;5046385;28;20026;-68
2023/05/04 05:39:55;;;;;;;4.97;2.67;;;;;;;15.73;43.19;102228.59;5039038;28;20025;-68
2023/05/04 05:42:21;;;;;;;6.40;2.40;;;;;;;15.48;43.26;102237.59;5046754;28;20036;-68
2023/05/04 05:44:46;;;;;;;6.37;2.57;;;;;;;15.34;43.42;102240.31;5043870;28;20025;-68
2023/05/04 05:47:11;;;;;;;5.33;2.70;;;;;;;15.63;42.87;102234.81;5048553;28;20033;-70
2023/05/04 05:49:37;;;;;;;4.07;2.43;;;;;;;16.31;42.24;102231.53;5049181;28;20116;-69
2023/05/04 05:52:02;;;;;;;3.83;2.67;;;;;;;16.37;42.49;102235.84;5031695;28;20021;-69
2023/05/04 05:54:31;;;;;;;5.83;3.27;;;;;;;16.51;41.52;102238.31;5029257;28;20088;-68
2023/05/04 05:56:57;;;;;;;4.50;2.57;;;;;;;16.88;41.14;102232.53;5040936;28;20026;-70
2023/05/04 05:59:22;;;;;;;8.77;3.00;;;;;;;16.61;41.07;102238.19;5030371;28;20041;-69
2023/05/04 06:01:48;;;;;;;3.70;2.27;;;;;;;16.23;42.58;102228.09;5034646;28;20021;-69
2023/05/04 06:04:13;;;;;;;4.07;2.53;;;;;;;16.58;42.10;102221.50;5046926;28;20029;-69
2023/05/04 06:06:39;;;;;;;6.80;2.40;;;;;;;16.47;41.80;102226.06;5061451;28;20025;-68
2023/05/04 06:09:04;;;;;;;4.70;2.33;;;;;;;16.65;41.86;102217.91;5063038;28;21663;-69
2023/05/04 06:11:30;;;;;;;4.67;2.30;;;;;;;16.95;40.83;102218.38;5034899;28;20025;-68
2023/05/04 06:13:56;;;;;;;4.00;2.33;;;;;;;16.78;41.78;102211.53;5048980;28;20031;-67
2023/05/04 06:16:21;;;;;;;4.63;2.20;;;;;;;16.52;42.32;102208.41;5049415;28;20041;-68
2023/05/04 06:18:47;;;;;;;5.23;2.40;;;;;;;17.64;39.73;102219.06;5043614;28;20033;-67
2023/05/04 06:21:12;;;;;;;5.70;2.93;;;;;;;18.18;38.41;102210.13;5054468;28;20113;-68
2023/05/04 06:23:38;;;;;;;5.10;2.70;;;;;;;17.59;39.98;102211.19;5030975;28;20025;-68
2023/05/04 06:26:07;;;;;;;6.97;2.77;;;;;;;17.56;39.90;102205.09;5034107;28;20025;-68
2023/05/04 06:28:32;;;;;;;6.33;2.47;;;;;;;17.43;40.64;102215.88;5045803;28;20037;-68
2023/05/04 06:30:58;;;;;;;6.90;2.63;;;;;;;17.60;39.85;102212.09;5044792;28;20044;-68
2023/05/04 06:33:23;;;;;;;4.73;2.57;;;;;;;17.41;39.99;102207.09;5044459;28;20167;-68
2023/05/04 06:35:49;;;;;;;4.93;2.50;;;;;;;17.50;39.67;102210.47;5052535;28;20043;-68
2023/05/04 06:38:15;;;;;;;13.10;2.93;;;;;;;18.27;39.25;102198.47;5050439;28;20179;-68
2023/05/04 06:40:40;;;;;;;8.60;3.13;;;;;;;17.62;39.63;102207.63;5050119;28;20115;-68
2023/05/04 06:43:05;;;;;;;6.33;2.90;;;;;;;17.93;39.46;102199.16;5047699;28;20040;-68
2023/05/04 06:45:36;;;;;;;5.80;2.50;;;;;;;18.29;38.71;102207.28;5049882;28;20254;-68
2023/05/04 06:48:02;;;;;;;7.40;3.00;;;;;;;18.09;38.67;102200.63;5061782;28;20029;-68
2023/05/04 06:50:27;;;;;;;9.97;3.00;;;;;;;18.48;38.12;102198.03;5043924;28;20028;-66
2023/05/04 06:53:07;;;;;;;5.80;2.80;;;;;;;18.34;38.56;102189.53;5028242;28;20465;-69
2023/05/04 06:55:33;;;;;;;5.33;2.57;;;;;;;18.44;38.40;102200.78;5032505;28;20397;-69
2023/05/04 06:57:58;;;;;;;7.10;2.90;;;;;;;19.41;36.89;102182.66;5053961;28;20041;-69
2023/05/04 07:00:24;;;;;;;4.93;2.90;;;;;;;19.38;36.48;102185.34;5047990;28;20029;-69
2023/05/04 07:02:52;;;;;;;7.10;3.70;;;;;;;19.60;36.33;102180.38;5048866;28;20029;-69
2023/05/04 07:05:18;;;;;;;5.43;2.60;;;;;;;20.51;34.53;102176.94;5046486;28;20036;-69
2023/05/04 07:07:43;;;;;;;5.10;2.20;;;;;;;22.40;32.26;102168.75;5046246;28;20041;-70
2023/05/04 07:10:09;;;;;;;3.83;2.50;;;;;;;23.21;31.27;102172.63;5040899;28;20385;-68
2023/05/04 07:12:34;;;;;;;4.85;2.85;;;;;;;22.07;32.07;102170.91;5034367;28;20070;-67
2023/05/04 07:15:00;;;;;;;4.40;2.00;;;;;;;22.41;31.50;102165.19;5047131;28;20033;-68
2023/05/04 07:17:25;;;;;;;6.50;2.17;;;;;;;21.52;32.37;102164.84;5047594;28;20028;-68
2023/05/04 07:19:53;;;;;;;2.92;2.28;;;;;;;21.77;32.39;102158.66;5044750;28;20064;-66
2023/05/04 07:22:19;;;;;;;3.40;2.38;;;;;;;23.04;30.71;102153.78;5030670;28;20036;-67
2023/05/04 07:24:45;;;;;;;3.92;2.50;;;;;;;22.23;31.46;102165.84;5045414;28;20060;-68
2023/05/04 07:27:11;;;;;;;8.60;2.20;;;;;;;21.76;32.27;102156.94;5037480;28;20049;-68
2023/05/04 07:29:36;;;;;;;3.92;2.25;;;;;;;23.51;29.94;102148.22;5036617;28;20035;-68
2023/05/04 07:32:02;;;;;;;3.97;2.25;;;;;;;22.73;31.17;102149.72;5050973;28;20115;-68
2023/05/04 07:34:27;;;;;;;4.38;2.67;;;;;;;22.93;30.93;102145.34;5045122;28;20024;-69
2023/05/04 07:36:53;;;;;;;3.20;2.22;;;;;;;23.09;30.91;102146.44;5039445;28;20040;-68
2023/05/04 07:39:18;;;;;;;5.15;2.65;;;;;;;23.33;30.96;102143.72;5033326;28;20044;-69
2023/05/04 07:41:43;;;;;;;4.18;2.13;;;;;;;23.17;30.98;102144.34;5039884;28;20034;-69
2023/05/04 07:44:10;;;;;;;4.60;2.78;;;;;;;24.62;29.20;102138.75;5027320;28;20025;-68
2023/05/04 07:46:37;;;;;;;5.50;2.38;;;;;;;24.22;29.57;102145.06;5043759;28;20370;-69
2023/05/04 07:49:02;;;;;;;4.15;2.65;;;;;;;24.88;29.43;102133.00;5038696;28;20037;-68
2023/05/04 07:51:28;;;;;;;4.35;2.13;;;;;;;25.39;28.47;102132.25;5044335;28;20091;-68
2023/05/04 07:53:53;;;;;;;3.17;2.00;;;;;;;25.43;28.04;102128.47;5028969;28;20053;-68
2023/05/04 07:56:18;;;;;;;4.03;2.03;;;;;;;24.77;29.25;102119.31;5036215;28;20487;-68
2023/05/04 07:58:44;;;;;;;4.70;2.20;;;;;;;25.37;28.35;102112.72;5055992;28;20028;-70
2023/05/04 08:01:10;;;;;;;3.38;2.22;;;;;;;24.48;28.26;102116.25;5054311;28;20025;-69
2023/05/04 08:03:35;;;;;;;9.52;2.80;;;;;;;23.53;30.07;102114.34;5051305;28;20040;-69
2023/05/04 08:06:01;;;;;;;6.10;2.45;;;;;;;24.53;29.18;102111.50;5050741;28;20024;-69
2023/05/04 08:08:26;;;;;;;3.40;2.28;;;;;;;26.06;27.66;102108.16;5049264;28;20398;-69
2023/05/04 08:10:52;;;;;;;5.22;2.03;;;;;;;25.40;27.33;102109.88;5056073;28;20765;-69
2023/05/04 08:13:17;;;;;;;6.25;2.30;;;;;;;25.71;27.65;102108.25;5041774;28;20059;-70
2023/05/04 08:15:43;;;;;;;5.55;2.55;;;;;;;27.44;25.89;102106.44;5043890;28;20037;-69
2023/05/04 08:18:08;;;;;;;3.17;2.10;;;;;;;26.60;26.07;102110.47;5048096;28;20104;-70
2023/05/04 08:20:33;;;;;;;6.65;2.15;;;;;;;25.21;27.84;102113.50;5051252;28;20029;-70
2023/05/04 08:23:01;;;;;;;5.50;2.30;;;;;;;26.05;26.82;102103.75;5046482;28;20025;-69
2023/05/04 08:25:29;;;;;;;2.55;1.92;;;;;;;25.02;28.08;102107.38;5046315;28;20028;-69
2023/05/04 08:27:55;;;;;;;5.47;2.45;;;;;;;26.43;27.31;102103.38;5046331;28;20123;-67
2023/05/04 08:30:21;;;;;;;7.90;2.03;;;;;;;26.96;26.52;102095.88;5042353;28;20035;-68
2023/05/04 08:32:47;;;;;;;3.83;2.35;;;;;;;28.03;24.32;102097.44;5046284;28;20108;-68
2023/05/04 08:35:12;;;;;;;2.78;1.92;;;;;;;27.17;25.42;102099.06;5031159;28;20043;-68
2023/05/04 08:37:38;;;;;;;6.45;2.13;;;;;;;27.40;25.53;102099.53;5030873;28;20484;-68
2023/05/04 08:40:04;;;;;;;5.57;2.70;;;;;;;28.16;24.53;102103.72;5047494;28;20503;-68
2023/05/04 08:42:31;;;;;;;3.08;2.03;;;;;;;28.73;24.30;102091.09;5030085;28;20037;-68
2023/05/04 08:44:57;;;;;;;4.40;2.22;;;;;;;27.85;24.70;102078.81;5031819;28;20029;-68
2023/05/04 08:47:27;;;;;;;5.88;2.13;;;;;;;28.20;24.86;102083.75;5031802;28;20067;-68
2023/05/04 08:49:54;;;;;;;1.92;1.73;;;;;;;27.16;25.44;102080.41;5047414;28;20035;-68
2023/05/04 08:52:24;;;;;;;5.10;2.15;;;;;;;27.32;25.57;102074.97;5050144;28;20396;-68
2023/05/04 08:54:53;;;;;;;4.07;2.58;;;;;;;28.02;25.07;102074.22;5051629;28;20061;-68
2023/05/04 08:57:24;;;;;;;2.85;1.98;;;;;;;27.89;24.74;102072.28;5050796;28;20409;-68
2023/05/04 08:59:54;;;;;;;3.03;2.08;;;;;;;28.70;24.41;102067.06;5034235;28;20033;-68
2023/05/04 09:02:21;;;;;;;3.45;2.03;;;;;;;28.50;23.99;102057.66;5029951;28;20433;-68
2023/05/04 09:04:51;;;;;;;4.28;2.47;;;;;;;30.06;23.60;102060.25;5031206;28;20389;-68
2023/05/04 09:07:21;;;;;;;2.80;2.10;;;;;;;29.13;23.39;102053.38;5030335;28;20490;-67
2023/05/04 09:09:49;;;;;;;2.90;1.98;;;;;;;29.40;24.74;102050.59;5031853;28;20021;-68
2023/05/04 09:12:15;;;;;;;3.00;2.05;;;;;;;30.20;23.32;102049.31;5045927;28;20025;-68
2023/05/04 09:14:41;;;;;;;3.17;1.90;;;;;;;31.65;21.73;102050.81;5038545;28;20040;-68
2023/05/04 09:17:16;;;;;;;2.10;1.90;;;;;;;31.34;21.32;102058.66;5029116;28;20013;-68
2023/05/04 09:19:44;;;;;;;4.45;2.35;;;;;;;32.57;20.52;102047.72;5031735;28;20079;-69
2023/05/04 09:22:17;;;;;;;3.17;2.10;;;;;;;33.46;20.03;102049.16;5046684;28;20032;-68
2023/05/04 09:24:43;;;;;;;;;;;;;;;33.41;19.69;102046.00;5031412;28;20048;-68
2023/05/04 09:27:12;;;;;;;2.30;1.85;;;;;;;32.26;20.17;102044.03;5029805;28;19909;-68
2023/05/04 09:29:40;;;;;;;2.75;1.90;;;;;;;32.84;19.49;102040.97;5046585;28;20021;-68
2023/05/04 09:32:11;;;;;;;1.80;1.65;;;;;;;30.25;21.58;102039.06;5030163;28;20033;-68
2023/05/04 09:34:45;;;;;;;2.50;2.13;;;;;;;30.12;22.51;102032.88;5030100;28;20546;-68
2023/05/04 09:37:10;;;;;;;3.50;1.80;;;;;;;29.91;23.22;102025.41;5031014;28;20034;-68
2023/05/04 09:39:35;;;;;;;3.30;2.00;;;;;;;32.10;20.85;102022.81;5032317;28;20021;-68
2023/05/04 09:42:01;;;;;;;4.75;2.22;;;;;;;31.79;21.32;102020.81;5031689;28;20083;-68
2023/05/04 09:44:27;;;;;;;2.17;1.98;;;;;;;31.46;22.42;102018.97;5031114;28;20362;-68
2023/05/04 09:46:57;;;;;;;2.97;2.00;;;;;;;31.30;21.61;102020.22;5029019;28;20060;-68
2023/05/04 09:49:37;;;;;;;2.30;1.85;;;;;;;31.97;21.05;102018.44;5030509;28;20414;-68
2023/05/04 09:52:05;;;;;;;1.67;1.50;;;;;;;32.84;20.08;102016.63;5029803;28;20067;-68
2023/05/04 09:54:37;;;;;;;2.53;2.05;;;;;;;32.63;20.23;102009.31;5030169;28;20053;-68
2023/05/04 09:57:14;;;;;;;2.13;1.83;;;;;;;31.21;21.53;101999.34;5030924;28;20025;-68
2023/05/04 09:59:41;;;;;;;4.75;3.35;;;;;;;32.86;21.00;102003.78;5029475;28;20033;-68
2023/05/04 10:02:07;;;;;;;2.58;2.00;;;;;;;31.45;21.24;102007.31;5042530;28;20036;-68
2023/05/04 10:04:33;;;;;;;6.03;1.98;;;;;;;32.18;21.65;101997.84;5049390;28;20040;-68
2023/05/04 10:07:02;;;;;;;2.40;1.88;;;;;;;33.38;20.06;101986.66;5048853;28;20021;-68
2023/05/04 10:09:30;;;;;;;2.83;2.03;;;;;;;32.37;21.18;101980.94;5048815;28;20047;-67
2023/05/04 10:12:00;;;;;;;6.65;2.13;;;;;;;32.42;20.80;101978.69;5049091;28;20033;-68
2023/05/04 10:14:26;;;;;;;2.63;2.08;;;;;;;33.14;20.69;101974.31;5048455;28;20075;-68
2023/05/04 10:17:20;;;;;;;3.17;1.80;;;;;;;33.52;19.75;101967.31;5048907;28;20082;-68
2023/05/04 10:19:56;;;;;;;2.70;1.80;;;;;;;31.58;20.84;101966.66;5050607;28;20044;-68
2023/05/04 10:22:58;;;;;;;1.88;1.50;;;;;;;31.03;21.51;101963.03;5047885;28;20028;-68
2023/05/04 10:25:42;;;;;;;3.03;2.47;;;;;;;30.50;22.18;101961.72;5048776;28;20032;-68
2023/05/04 10:28:21;;;;;;;3.17;1.90;;;;;;;31.81;21.49;101958.53;5047670;28;20051;-68
2023/05/04 10:30:47;;;;;;;3.08;2.17;;;;;;;32.73;21.10;101946.31;5038699;28;20107;-68
2023/05/04 10:33:12;;;;;;;3.03;2.38;;;;;;;32.59;21.12;101937.53;5047788;28;20170;-68
2023/05/04 10:35:49;;;;;;;2.30;1.92;;;;;;;33.22;19.44;101950.09;5047808;28;20029;-67
2023/05/04 10:38:15;;;;;;;5.35;2.70;;;;;;;32.92;20.19;101949.13;5049700;28;20025;-68
2023/05/04 10:40:40;;;;;;;3.67;2.30;;;;;;;32.36;20.44;101946.78;5049043;28;20037;-68
2023/05/04 10:43:07;;;;;;;4.40;2.38;;;;;;;33.33;20.09;101935.59;5048636;28;20096;-68
2023/05/04 10:45:36;;;;;;;4.97;2.50;;;;;;;33.77;19.97;101930.72;5050042;28;20059;-68
2023/05/04 10:48:03;;;;;;;2.85;2.08;;;;;;;32.33;20.57;101919.97;5048866;28;20028;-67
2023/05/04 10:50:40;;;;;;;4.22;2.38;;;;;;;31.67;20.79;101915.56;5033560;28;20383;-68
2023/05/04 10:53:06;;;;;;;4.05;2.60;;;;;;;31.77;20.60;101906.56;5029367;28;20053;-68
2023/05/04 10:55:39;;;;;;;5.05;3.08;;;;;;;33.90;19.99;101895.19;5029385;28;20033;-68
2023/05/04 10:58:05;;;;;;;3.08;2.10;;;;;;;32.70;21.02;101895.16;5029566;28;20025;-68
2023/05/04 11:00:38;;;;;;;5.50;2.72;;;;;;;32.34;21.27;101894.66;5040011;28;20090;-67
2023/05/04 11:03:06;;;;;;;5.55;2.60;;;;;;;33.41;20.93;101895.13;5045652;28;20098;-68
2023/05/04 11:05:57;;;;;;;4.60;2.55;;;;;;;33.88;20.11;101891.78;5049749;28;20052;-68
2023/05/04 11:08:26;;;;;;;4.78;3.05;;;;;;;34.41;19.07;101889.59;5044049;28;20106;-68
2023/05/04 11:11:02;;;;;;;3.55;2.47;;;;;;;35.03;19.68;101891.78;5049039;28;20029;-68
2023/05/04 11:13:32;;;;;;;6.28;2.53;;;;;;;33.36;20.09;101891.13;5049166;28;20082;-68
2023/05/04 11:15:58;;;;;;;5.45;2.60;;;;;;;35.09;19.88;101880.31;5035745;28;20065;-68
2023/05/04 11:18:33;;;;;;;3.63;2.45;;;;;;;34.52;19.47;101881.25;5045317;28;20544;-67
2023/05/04 11:20:58;;;;;;;3.30;2.53;;;;;;;34.30;19.54;101880.59;5049647;28;20032;-68
2023/05/04 11:23:24;;;;;;;3.47;2.47;;;;;;;35.33;18.80;101880.59;5053966;28;20032;-68